Accueil
METAR-TAF:

METAR-TAF

Aéroports :

Aéroport d'Oran - Ahmed Ben Bella

Oran, Algérie

latitude: 35-38N, longitude: 000-36W, altitude: 90 m

Observation

Le bulletin a été fait il y a 1 heure et 24 minutes, à 12:30 UTC
Vent 15 kt de nord/nord-ouest, variant entre ouest/nord-ouest et nord
Température 27°C
Humidité 58%
Pression 1014 hPa
Visibilité 10 km ou plus
Quelques nuages à une hauteur de 2300 ft
Nuages épars à une hauteur de 10000 ft

METAR: DAOO 231230Z 33015KT 300V360 9999 FEW023 SCT100 27/18 Q1014

Heure: 14:54 (13:54 UTC)

Prévision

Le bulletin a été fait il y a 2 heures et 54 minutes, à 11:00 UTC
Prévision valable du 23 à 12 UTC au 24 à 12 UTC
Vent 12 kt de nord
Visibilité 10 km ou plus
Quelques nuages à une hauteur de 2300 ft
Nuages épars à une hauteur de 10000 ft
Evoluant progressivement
du 23 à 19 UTC au 23 à 22 UTC
Vent 2 kt de direction variable

TAF: DAOO 231100Z 2312/2412 36012KT 9999 FEW023 SCT100 BECMG 2319/2322 VRB02KT

Observations et prévisions météorologiques de plus de 4000 aéroports (messages METAR et TAF).

Les stations disponibles sont représentées par des disques jaunes et rouges sur la carte.

Passer la souris dessus pour voir le nom de la station.

Cliquer dessus pour voir les observations et prévisions météorologiques.

Pour changer de carte: cliquez sur les boutons verts avec une croix noire pour zoomer, sur le bouton vert avec un tiret pour effectuer un zoom arrière, ou sur les flèches vertes pour les cartes adjacentes.


METAR-TAF: